Time;durP1;ratioP1;P1;durP2;ratioP2;P2;SDS_P1;SDS_P2;PMS_P1;PMS_P2;Temp;Humidity;BMP_temperature;BMP_pressure;BME280_temperature;BME280_humidity;BME280_pressure;Samples;Min_cycle;Max_cycle;Signal;HPM_P1;HPM_P2
2021/07/14 00:01:33;;;;;;;27.60;12.65;;;;;;;16.76;84.12;101370.34;5026678;28;20029;-48
2021/07/14 00:03:58;;;;;;;26.85;12.95;;;;;;;16.75;84.18;101372.09;5027234;28;20506;-48
2021/07/14 00:06:24;;;;;;;30.52;12.90;;;;;;;16.77;83.91;101378.19;5026496;28;20112;-48
2021/07/14 00:08:49;;;;;;;24.60;12.38;;;;;;;16.86;84.23;101369.41;5018262;28;20033;-51
2021/07/14 00:11:15;;;;;;;27.77;12.30;;;;;;;16.85;83.87;101379.06;5011827;28;20079;-53
2021/07/14 00:22:14;;;;;;;26.23;12.98;;;;;;;16.91;83.83;101375.50;5013632;28;20476;-46
2021/07/14 00:24:38;;;;;;;22.20;12.50;;;;;;;16.85;84.37;101371.16;5028415;28;20510;-51
2021/07/14 00:27:06;;;;;;;26.55;12.32;;;;;;;16.91;84.23;101373.75;5009446;28;20056;-48
2021/07/14 00:29:35;;;;;;;29.50;13.32;;;;;;;16.92;84.60;101377.28;5013981;28;20512;-50
2021/07/14 00:32:01;;;;;;;28.88;13.60;;;;;;;16.93;84.06;101381.66;5021473;28;20076;-51
2021/07/14 00:34:26;;;;;;;31.25;13.93;;;;;;;16.95;83.85;101382.53;5027024;28;20116;-51
2021/07/14 00:36:51;;;;;;;32.65;14.63;;;;;;;16.92;84.12;101378.16;5022757;28;20053;-47
2021/07/14 00:39:17;;;;;;;33.50;16.02;;;;;;;16.84;84.27;101387.81;5025285;28;20104;-49
2021/07/14 00:41:42;;;;;;;34.40;17.15;;;;;;;16.88;84.07;101386.97;5027683;28;20039;-49
2021/07/14 00:44:07;;;;;;;33.35;16.13;;;;;;;16.85;84.34;101384.31;5024282;28;20076;-48
2021/07/14 00:46:33;;;;;;;34.80;16.98;;;;;;;16.77;84.86;101378.19;5026860;28;20025;-48
2021/07/14 00:48:59;;;;;;;38.80;18.35;;;;;;;16.77;84.71;101383.47;5006347;28;20061;-55
2021/07/14 00:51:26;;;;;;;37.85;17.70;;;;;;;16.81;84.75;101379.97;5009815;28;20571;-52
2021/07/14 00:53:52;;;;;;;41.58;19.77;;;;;;;16.80;84.87;101380.84;5030248;28;20697;-49
2021/07/14 00:56:18;;;;;;;44.83;20.45;;;;;;;16.72;85.21;101377.34;5021565;28;20025;-52
2021/07/14 00:58:43;;;;;;;43.90;20.48;;;;;;;16.76;85.08;101375.59;5019534;28;20384;-50
2021/07/14 01:01:09;;;;;;;46.28;22.10;;;;;;;16.80;84.89;101382.59;5025499;28;20033;-50
2021/07/14 01:03:50;;;;;;;49.08;21.83;;;;;;;16.75;85.30;101379.09;5023799;28;20080;-51
2021/07/14 01:06:20;;;;;;;50.95;23.38;;;;;;;16.57;86.21;101377.38;5022538;28;20028;-50
2021/07/14 01:08:57;;;;;;;52.10;23.35;;;;;;;16.73;85.82;101396.66;5021713;28;20109;-47
2021/07/14 01:11:23;;;;;;;49.53;23.75;;;;;;;16.73;85.54;101388.75;5026307;28;20041;-49
2021/07/14 01:14:05;;;;;;;46.50;22.48;;;;;;;16.79;85.53;101388.72;5009142;28;20112;-52
2021/07/14 01:16:38;;;;;;;41.20;20.17;;;;;;;16.79;85.56;101383.47;5009062;28;20034;-50
2021/07/14 01:19:41;;;;;;;47.92;21.33;;;;;;;16.73;85.61;101376.47;5025947;28;20036;-47
2021/07/14 01:22:51;;;;;;;37.08;17.33;;;;;;;16.83;85.41;101383.44;5019006;28;20044;-52
2021/07/14 01:25:27;;;;;;;46.28;19.20;;;;;;;16.81;85.59;101376.44;5001223;28;20098;-51
2021/07/14 01:27:55;;;;;;;41.80;18.42;;;;;;;16.73;85.91;101371.19;5009991;28;20082;-49
2021/07/14 01:30:21;;;;;;;35.58;16.05;;;;;;;16.90;85.54;101376.38;5010658;28;20060;-48
2021/07/14 01:32:48;;;;;;;39.20;18.65;;;;;;;16.74;85.88;101374.72;5020088;28;20282;-51
2021/07/14 01:35:17;;;;;;;44.58;19.08;;;;;;;16.72;86.11;101371.19;5008196;28;20036;-49
2021/07/14 01:37:43;;;;;;;40.58;18.83;;;;;;;16.80;85.67;101369.44;5024205;28;20032;-46
2021/07/14 01:40:10;;;;;;;38.30;18.42;;;;;;;16.78;85.87;101377.31;5022743;28;20032;-46
2021/07/14 01:42:36;;;;;;;43.60;18.27;;;;;;;16.87;85.49;101372.03;5011080;28;20053;-46
2021/07/14 01:45:04;;;;;;;46.22;18.95;;;;;;;16.88;85.58;101365.88;5002770;28;20120;-51
2021/07/14 01:47:33;;;;;;;44.83;19.25;;;;;;;16.66;86.15;101372.09;5011326;28;20034;-49
2021/07/14 01:49:58;;;;;;;46.40;19.38;;;;;;;16.65;86.38;101375.63;5018481;28;20158;-49
2021/07/14 01:52:26;;;;;;;42.63;18.85;;;;;;;16.63;86.20;101374.75;5011826;28;20025;-50
2021/07/14 01:54:54;;;;;;;48.60;19.08;;;;;;;16.59;86.64;101368.63;5017192;28;20040;-50
2021/07/14 01:57:21;;;;;;;46.08;18.40;;;;;;;16.66;86.47;101380.00;5007118;28;20043;-49
2021/07/14 01:59:47;;;;;;;43.80;19.20;;;;;;;16.70;86.44;101386.16;5026176;28;20028;-49
2021/07/14 02:02:14;;;;;;;36.67;16.98;;;;;;;16.68;86.09;101378.25;5007271;28;20151;-48
2021/07/14 02:04:41;;;;;;;36.20;17.83;;;;;;;16.69;86.04;101376.50;5010034;28;20047;-48
2021/07/14 02:07:12;;;;;;;39.13;17.55;;;;;;;16.71;86.13;101374.75;5020618;28;20889;-49
2021/07/14 02:09:40;;;;;;;38.97;17.13;;;;;;;16.74;85.92;101364.19;5024408;28;20661;-47
2021/07/14 02:12:19;;;;;;;35.38;16.30;;;;;;;16.79;85.83;101371.19;5009085;28;20389;-48
2021/07/14 02:14:48;;;;;;;33.95;15.15;;;;;;;16.80;85.31;101366.78;5025068;28;20453;-54
2021/07/14 02:17:17;;;;;;;35.10;15.52;;;;;;;16.80;85.06;101370.31;5021071;28;20176;-49
2021/07/14 02:19:52;;;;;;;35.70;17.25;;;;;;;16.76;85.03;101368.56;5007997;28;20029;-52
2021/07/14 02:22:17;;;;;;;34.17;15.70;;;;;;;16.79;84.79;101372.94;5024785;28;20040;-51
2021/07/14 02:24:43;;;;;;;33.90;15.95;;;;;;;16.79;84.74;101358.00;5022009;28;20037;-51
2021/07/14 02:27:10;;;;;;;35.92;15.73;;;;;;;16.80;84.98;101351.00;5025468;28;20037;-52
2021/07/14 02:29:37;;;;;;;35.28;15.02;;;;;;;16.81;84.94;101356.25;5019340;28;20028;-47
2021/07/14 02:32:03;;;;;;;31.70;15.02;;;;;;;16.82;84.92;101350.13;5007870;28;20094;-49
2021/07/14 02:34:29;;;;;;;36.40;15.15;;;;;;;16.81;84.79;101347.47;5022880;28;20032;-50
2021/07/14 02:36:56;;;;;;;30.55;14.73;;;;;;;16.86;84.44;101343.06;5023030;28;20025;-48
2021/07/14 02:39:21;;;;;;;30.40;15.48;;;;;;;16.87;84.17;101343.06;5006102;28;20389;-52
2021/07/14 02:41:58;;;;;;;34.70;16.15;;;;;;;16.89;84.10;101341.31;5003036;28;20041;-51
2021/07/14 02:44:24;;;;;;;30.70;15.90;;;;;;;17.09;83.03;101338.53;5024618;28;20710;-51
2021/07/14 02:46:53;;;;;;;30.05;16.40;;;;;;;17.16;82.60;101342.00;5017952;28;20078;-50
2021/07/14 02:49:22;;;;;;;32.72;16.20;;;;;;;16.88;83.78;101346.56;5024287;28;20028;-51
2021/07/14 02:51:49;;;;;;;31.15;16.67;;;;;;;16.78;83.98;101343.09;5017255;28;20406;-51
2021/07/14 02:54:23;;;;;;;33.83;17.92;;;;;;;16.70;84.65;101344.03;5007193;28;20039;-49
2021/07/14 02:56:52;;;;;;;35.78;17.27;;;;;;;16.69;84.68;101348.41;5022944;28;20040;-52
2021/07/14 02:59:20;;;;;;;31.42;17.20;;;;;;;16.68;85.21;101351.03;5017673;28;20040;-49
2021/07/14 03:01:45;;;;;;;34.25;17.27;;;;;;;16.67;84.87;101347.53;5026058;28;20072;-48
2021/07/14 03:04:12;;;;;;;30.98;15.65;;;;;;;16.68;85.22;101344.03;5021163;28;20100;-49
2021/07/14 03:06:38;;;;;;;35.50;17.40;;;;;;;16.65;85.01;101338.75;5022689;28;20029;-50
2021/07/14 03:09:05;;;;;;;36.65;16.85;;;;;;;16.70;85.17;101344.03;5017580;28;20453;-51
2021/07/14 03:11:34;;;;;;;30.35;16.95;;;;;;;16.69;84.86;101340.50;5023108;28;20029;-52
2021/07/14 03:14:00;;;;;;;29.58;17.17;;;;;;;16.71;84.57;101351.06;5022075;28;20033;-48
2021/07/14 03:16:25;;;;;;;36.22;17.20;;;;;;;16.71;84.68;101354.53;5023685;28;20319;-47
2021/07/14 03:18:51;;;;;;;31.15;18.00;;;;;;;16.67;84.67;101349.28;5002851;28;20052;-48
2021/07/14 03:21:17;;;;;;;30.00;16.30;;;;;;;16.72;84.70;101342.25;5006656;28;20065;-49
2021/07/14 03:23:43;;;;;;;33.05;17.55;;;;;;;16.68;84.81;101337.88;5003625;28;20132;-48
2021/07/14 03:26:09;;;;;;;29.50;16.42;;;;;;;16.70;85.02;101333.50;5016642;28;20400;-51
2021/07/14 03:28:38;;;;;;;29.77;15.93;;;;;;;16.67;84.45;101323.84;4992281;28;20049;-49
2021/07/14 03:31:04;;;;;;;25.38;15.38;;;;;;;16.69;84.56;101337.88;4999876;28;20366;-50
2021/07/14 03:33:30;;;;;;;28.85;15.00;;;;;;;16.69;84.64;101339.63;5007159;28;20116;-51
2021/07/14 03:35:58;;;;;;;24.20;15.15;;;;;;;16.72;84.46;101348.38;5019257;28;20061;-52
2021/07/14 03:38:25;;;;;;;24.27;14.07;;;;;;;16.77;84.20;101340.50;5022708;28;20028;-49
2021/07/14 03:40:51;;;;;;;23.48;14.30;;;;;;;16.80;84.21;101333.44;5019973;28;20134;-48
2021/07/14 03:43:16;;;;;;;26.35;15.52;;;;;;;16.74;84.30;101327.31;5004064;28;20028;-50
2021/07/14 03:45:43;;;;;;;26.52;15.60;;;;;;;16.75;84.65;101321.19;5010372;28;20031;-49
2021/07/14 03:48:16;;;;;;;33.08;16.85;;;;;;;16.70;84.62;101330.88;5016444;28;20084;-49
2021/07/14 03:50:41;;;;;;;28.73;16.10;;;;;;;16.74;84.54;101325.56;5021718;28;20025;-49
2021/07/14 03:53:07;;;;;;;28.73;16.65;;;;;;;16.76;84.86;101333.47;5005698;28;20111;-51
2021/07/14 03:55:33;;;;;;;31.02;17.00;;;;;;;16.75;84.82;101323.81;5004106;28;20037;-47
2021/07/14 03:57:58;;;;;;;32.20;18.00;;;;;;;16.70;84.48;101328.22;5013054;28;20017;-51
2021/07/14 04:00:24;;;;;;;30.63;16.70;;;;;;;16.72;84.74;101336.97;5021448;28;20076;-53
2021/07/14 04:02:49;;;;;;;32.30;18.05;;;;;;;16.70;85.01;101339.63;5022487;28;20056;-52
2021/07/14 04:05:15;;;;;;;30.55;17.63;;;;;;;16.72;84.69;101342.25;5014881;28;20491;-49
2021/07/14 04:07:42;;;;;;;32.95;17.88;;;;;;;16.72;84.76;101331.72;5023269;28;20033;-47
2021/07/14 04:10:09;;;;;;;37.55;17.73;;;;;;;16.72;85.04;101329.94;5018613;28;20183;-49
2021/07/14 04:12:34;;;;;;;31.17;17.55;;;;;;;16.73;85.04;101312.41;5021739;28;20564;-53
2021/07/14 04:15:00;;;;;;;40.85;18.02;;;;;;;16.75;85.20;101318.53;5021540;28;20029;-49
2021/07/14 04:17:26;;;;;;;31.73;17.75;;;;;;;16.74;84.62;101322.06;5020926;28;20032;-51
2021/07/14 04:19:51;;;;;;;32.08;17.85;;;;;;;16.74;85.13;101324.69;5024948;28;20036;-50
2021/07/14 04:22:16;;;;;;;31.98;17.83;;;;;;;16.69;85.01;101314.19;5018233;28;20430;-49
2021/07/14 04:24:42;;;;;;;31.02;17.40;;;;;;;16.70;84.73;101310.69;5022005;28;20135;-47
2021/07/14 04:27:08;;;;;;;29.15;17.08;;;;;;;16.69;84.47;101319.47;5016693;28;21657;-51
2021/07/14 04:29:34;;;;;;;30.20;15.68;;;;;;;16.72;84.51;101326.44;5008033;28;20021;-54
2021/07/14 04:31:59;;;;;;;29.38;15.98;;;;;;;16.71;84.09;101327.34;5023327;28;20393;-47
2021/07/14 04:34:25;;;;;;;28.55;16.10;;;;;;;16.67;84.47;101322.97;5021104;28;20043;-52
2021/07/14 04:36:50;;;;;;;30.25;16.30;;;;;;;16.72;84.28;101323.81;5026985;28;20101;-47
2021/07/14 04:39:16;;;;;;;30.55;16.27;;;;;;;16.70;84.16;101329.09;5021609;28;20040;-48
2021/07/14 04:41:41;;;;;;;31.63;16.33;;;;;;;16.70;84.18;101322.97;5011584;28;20074;-51
2021/07/14 04:44:09;;;;;;;32.72;16.02;;;;;;;16.71;84.10;101330.84;5024440;28;20021;-50
2021/07/14 04:46:35;;;;;;;29.67;16.60;;;;;;;16.74;83.92;101329.97;5023688;28;20043;-48
2021/07/14 04:49:00;;;;;;;28.65;15.65;;;;;;;16.80;83.79;101332.56;5021059;28;20017;-47
2021/07/14 04:51:26;;;;;;;29.95;16.52;;;;;;;16.78;83.71;101335.19;5022234;28;20344;-51
2021/07/14 04:53:52;;;;;;;28.65;15.82;;;;;;;16.81;83.90;101332.56;5020537;28;20072;-46
2021/07/14 04:56:18;;;;;;;33.80;16.75;;;;;;;16.83;83.97;101340.47;5010669;28;20032;-47
2021/07/14 04:58:44;;;;;;;32.65;16.42;;;;;;;16.82;83.74;101346.59;5026703;28;20484;-50
2021/07/14 05:01:09;;;;;;;34.35;17.55;;;;;;;16.77;84.25;101346.59;5021754;28;20032;-48
2021/07/14 05:03:35;;;;;;;35.33;17.67;;;;;;;16.76;84.15;101344.00;5024037;28;20037;-48
2021/07/14 05:06:00;;;;;;;38.05;17.77;;;;;;;16.77;84.08;101338.69;5025774;28;20087;-48
2021/07/14 05:08:25;;;;;;;37.05;17.45;;;;;;;16.75;84.12;101335.22;5020949;28;20563;-51
2021/07/14 05:10:51;;;;;;;36.33;19.30;;;;;;;16.75;84.32;101336.97;5024635;28;20443;-50
2021/07/14 05:13:17;;;;;;;40.17;17.90;;;;;;;16.86;83.83;101343.06;5020569;28;20441;-47
2021/07/14 05:15:47;;;;;;;45.30;18.02;;;;;;;16.78;84.22;101350.13;5025110;28;20436;-47
2021/07/14 05:18:12;;;;;;;34.53;17.23;;;;;;;16.79;84.55;101343.97;5020937;28;20029;-49
2021/07/14 05:20:38;;;;;;;32.10;16.92;;;;;;;16.77;83.81;101345.75;5011847;28;20032;-47
2021/07/14 05:23:04;;;;;;;34.90;17.25;;;;;;;16.75;84.20;101350.16;5022591;28;20052;-51
2021/07/14 05:25:29;;;;;;;39.80;17.23;;;;;;;16.77;84.34;101354.50;5023923;28;20029;-48
2021/07/14 05:27:55;;;;;;;44.20;17.95;;;;;;;16.77;84.03;101346.59;5020676;28;20049;-50
2021/07/14 05:30:20;;;;;;;39.00;17.05;;;;;;;16.79;84.17;101352.75;5024098;28;20362;-47
2021/07/14 05:32:45;;;;;;;35.78;16.58;;;;;;;16.83;84.06;101348.38;5026174;28;20037;-49
2021/07/14 05:35:11;;;;;;;29.23;15.48;;;;;;;16.84;84.07;101347.44;5020084;28;20743;-51
2021/07/14 05:37:36;;;;;;;31.77;14.93;;;;;;;16.75;83.70;101353.66;5023501;28;20041;-49
2021/07/14 05:40:03;;;;;;;30.67;16.40;;;;;;;16.78;83.54;101361.53;5022143;28;20037;-51
2021/07/14 05:42:29;;;;;;;35.40;16.90;;;;;;;16.77;84.30;101366.81;5022258;28;20025;-46
2021/07/14 05:44:54;;;;;;;33.00;16.80;;;;;;;16.79;83.79;101367.66;5022105;28;20064;-48
2021/07/14 05:47:20;;;;;;;36.80;18.77;;;;;;;16.75;83.95;101369.44;5020210;28;20085;-52
2021/07/14 05:49:45;;;;;;;38.17;19.05;;;;;;;16.73;84.09;101367.69;5026947;28;20021;-51
2021/07/14 05:52:13;;;;;;;41.95;18.40;;;;;;;16.66;84.15;101374.72;5019868;28;20210;-50
2021/07/14 05:54:38;;;;;;;34.67;17.38;;;;;;;16.62;84.05;101378.28;5024995;28;20557;-52
2021/07/14 05:57:04;;;;;;;34.13;15.93;;;;;;;16.62;84.40;101376.50;5008711;28;20232;-53
2021/07/14 05:59:29;;;;;;;30.95;14.35;;;;;;;16.63;84.40;101386.16;5023352;28;20021;-47
2021/07/14 06:01:54;;;;;;;27.75;14.65;;;;;;;16.64;84.40;101387.06;5024141;28;20045;-47
2021/07/14 06:04:20;;;;;;;33.63;16.52;;;;;;;16.61;84.67;101392.31;5020672;28;20170;-47
2021/07/14 06:06:45;;;;;;;33.03;15.68;;;;;;;16.58;84.77;101393.19;5026229;28;20025;-47
2021/07/14 06:09:10;;;;;;;30.73;15.32;;;;;;;16.62;84.54;101396.69;5015975;28;20559;-50
2021/07/14 06:11:36;;;;;;;28.20;13.55;;;;;;;16.66;84.27;101398.44;5022624;28;20028;-50
2021/07/14 06:14:01;;;;;;;26.65;13.85;;;;;;;16.69;84.03;101394.94;5022212;28;20044;-52
2021/07/14 06:16:27;;;;;;;30.33;15.13;;;;;;;16.66;84.26;101392.28;5009808;28;20567;-49
2021/07/14 06:18:52;;;;;;;29.95;15.00;;;;;;;16.69;84.49;101390.53;5021119;28;20519;-48
2021/07/14 06:21:18;;;;;;;26.75;14.20;;;;;;;16.71;84.25;101391.38;5020857;28;20564;-49
2021/07/14 06:23:43;;;;;;;24.55;13.68;;;;;;;16.69;83.86;101394.94;5006161;28;20112;-48
2021/07/14 06:26:09;;;;;;;27.67;14.10;;;;;;;16.67;83.78;101388.78;5015667;28;20495;-51
2021/07/14 06:28:35;;;;;;;30.30;15.43;;;;;;;16.65;84.23;101390.56;5018579;28;20296;-51
2021/07/14 06:31:00;;;;;;;22.58;12.88;;;;;;;16.72;84.20;101389.63;5018707;28;20128;-52
2021/07/14 06:33:27;;;;;;;26.40;14.65;;;;;;;16.72;84.14;101384.38;5021250;28;20032;-50
2021/07/14 06:35:52;;;;;;;27.90;14.93;;;;;;;16.72;84.36;101387.88;5021144;28;20044;-51
2021/07/14 06:38:18;;;;;;;28.42;14.50;;;;;;;16.74;84.15;101401.03;5009001;28;20017;-50
2021/07/14 06:40:44;;;;;;;29.98;14.88;;;;;;;16.74;84.16;101401.94;5022568;28;20485;-50
2021/07/14 06:43:15;;;;;;;25.00;14.50;;;;;;;16.77;83.78;101394.00;5015175;28;20180;-49
2021/07/14 06:45:41;;;;;;;24.08;13.95;;;;;;;16.81;83.54;101394.88;5024621;28;20384;-52
2021/07/14 06:48:07;;;;;;;23.10;12.85;;;;;;;16.82;83.30;101394.88;5021133;28;20354;-49
2021/07/14 06:50:32;;;;;;;24.25;13.90;;;;;;;16.88;82.98;101392.22;5021998;28;20033;-50
2021/07/14 06:53:01;;;;;;;26.33;14.02;;;;;;;16.85;82.60;101384.31;5017019;28;20434;-50
2021/07/14 06:55:26;;;;;;;22.98;13.10;;;;;;;16.88;82.75;101399.25;5019392;28;20122;-49
2021/07/14 06:57:52;;;;;;;28.15;14.18;;;;;;;16.88;83.19;101394.84;5020780;28;20432;-52
2021/07/14 07:00:17;;;;;;;22.33;12.55;;;;;;;16.93;83.28;101402.72;5024741;28;20499;-49
2021/07/14 07:02:44;;;;;;;27.67;15.18;;;;;;;16.84;82.74;101403.63;5022927;28;20168;-52
2021/07/14 07:05:09;;;;;;;28.05;15.77;;;;;;;16.81;82.81;101402.78;5017042;28;21122;-49
2021/07/14 07:07:35;;;;;;;30.55;15.73;;;;;;;16.83;83.05;101406.28;5020871;28;20021;-48
2021/07/14 07:10:00;;;;;;;28.88;16.30;;;;;;;16.84;83.08;101416.81;5002665;28;20481;-47
2021/07/14 07:12:27;;;;;;;29.65;15.82;;;;;;;16.88;83.30;101415.06;5022634;28;20490;-51
2021/07/14 07:14:53;;;;;;;28.95;15.27;;;;;;;16.88;82.26;101405.41;5021177;28;20033;-48
2021/07/14 07:17:20;;;;;;;27.45;15.13;;;;;;;17.02;81.63;101411.44;5021475;28;20040;-48
2021/07/14 07:19:45;;;;;;;24.88;13.90;;;;;;;17.12;80.77;101401.78;5015986;28;20025;-51
2021/07/14 07:22:11;;;;;;;25.67;13.70;;;;;;;17.25;81.20;101407.84;5025067;28;20556;-50
2021/07/14 07:24:36;;;;;;;23.65;13.07;;;;;;;17.35;81.27;101405.16;5021093;28;20058;-49
2021/07/14 07:27:04;;;;;;;28.30;14.68;;;;;;;17.34;80.84;101403.38;5012552;28;20053;-52
2021/07/14 07:29:29;;;;;;;27.27;14.93;;;;;;;17.37;80.60;101399.88;5004264;28;20021;-50
2021/07/14 07:31:55;;;;;;;23.98;13.40;;;;;;;17.39;80.77;101395.44;5022193;28;20040;-49
2021/07/14 07:34:22;;;;;;;21.88;12.60;;;;;;;17.39;80.04;101392.81;5017590;28;20037;-49
2021/07/14 07:36:48;;;;;;;21.75;12.50;;;;;;;17.45;80.18;101395.41;5025957;28;20631;-48
2021/07/14 07:39:14;;;;;;;23.30;12.60;;;;;;;17.46;79.86;101391.91;5015008;28;20030;-47
2021/07/14 07:41:40;;;;;;;20.95;12.18;;;;;;;17.49;79.27;101396.28;5022135;28;20401;-51
2021/07/14 07:44:06;;;;;;;19.08;11.23;;;;;;;17.51;79.42;101387.47;4997639;28;20024;-50
2021/07/14 07:46:33;;;;;;;18.80;11.95;;;;;;;17.55;79.19;101385.69;5019504;28;20036;-48
2021/07/14 07:48:58;;;;;;;20.92;11.05;;;;;;;17.58;79.47;101386.53;5020291;28;20029;-55
2021/07/14 07:51:23;;;;;;;22.58;11.95;;;;;;;17.49;80.00;101381.34;5017825;28;20445;-52
2021/07/14 07:53:49;;;;;;;20.65;11.90;;;;;;;17.49;79.72;101380.47;5019020;28;20497;-52
2021/07/14 07:56:15;;;;;;;20.85;12.00;;;;;;;17.54;80.22;101386.56;5015768;28;20100;-49
2021/07/14 07:58:43;;;;;;;17.50;10.43;;;;;;;17.62;79.20;101383.03;5009354;28;20033;-51
2021/07/14 08:01:09;;;;;;;22.02;12.00;;;;;;;17.51;78.66;101394.50;5019128;28;20303;-52
2021/07/14 08:03:34;;;;;;;21.27;12.10;;;;;;;17.50;80.10;101383.09;5019954;28;20068;-46
2021/07/14 08:06:00;;;;;;;19.40;11.80;;;;;;;17.54;80.26;101379.53;5025801;28;20038;-47
2021/07/14 08:08:25;;;;;;;23.80;12.35;;;;;;;17.60;79.43;101389.16;5021825;28;20103;-50
2021/07/14 08:10:53;;;;;;;17.95;11.80;;;;;;;17.60;79.44;101392.72;5026137;28;20038;-52
2021/07/14 08:13:18;;;;;;;22.15;11.93;;;;;;;17.70;80.19;101393.50;5017513;28;20045;-49
2021/07/14 08:15:45;;;;;;;20.27;11.10;;;;;;;17.83;78.78;101392.53;5012517;28;20035;-53
2021/07/14 08:18:10;;;;;;;17.75;10.52;;;;;;;18.01;78.20;101394.13;5026023;28;20033;-49
2021/07/14 08:20:35;;;;;;;17.90;10.35;;;;;;;18.10;78.47;101389.66;5026354;28;20385;-51
2021/07/14 08:23:01;;;;;;;17.80;10.88;;;;;;;18.11;78.05;101396.66;5024023;28;20064;-50
2021/07/14 08:25:26;;;;;;;19.10;10.02;;;;;;;17.96;78.14;101396.81;5022272;28;20483;-55
2021/07/14 08:27:52;;;;;;;18.20;9.55;;;;;;;17.96;78.57;101398.59;5024665;28;20975;-52
2021/07/14 08:30:18;;;;;;;15.65;9.55;;;;;;;17.99;78.91;101394.13;5019389;28;20504;-53
2021/07/14 08:32:43;;;;;;;17.02;10.18;;;;;;;18.06;78.56;101387.03;5014864;28;20041;-50
2021/07/14 08:35:10;;;;;;;18.48;10.15;;;;;;;18.07;79.30;101392.31;5016989;28;20070;-48
2021/07/14 08:37:35;;;;;;;15.07;9.68;;;;;;;17.99;78.53;101394.13;5022531;28;20055;-52
2021/07/14 08:40:01;;;;;;;13.15;8.70;;;;;;;18.06;78.39;101385.28;5021483;28;20450;-49
2021/07/14 08:42:27;;;;;;;11.98;7.63;;;;;;;18.12;78.99;101394.91;5028095;28;20028;-52
2021/07/14 08:44:53;;;;;;;13.15;7.90;;;;;;;18.15;78.65;101392.25;5023010;28;20036;-49
2021/07/14 08:47:19;;;;;;;16.52;8.05;;;;;;;18.24;78.11;101394.78;5023875;28;20017;-48
2021/07/14 08:49:47;;;;;;;12.80;8.20;;;;;;;18.24;78.68;101382.47;5007407;28;20048;-49
2021/07/14 08:52:13;;;;;;;12.95;8.10;;;;;;;18.28;78.06;101393.91;5022997;28;20120;-51
2021/07/14 08:54:43;;;;;;;12.13;7.90;;;;;;;18.41;77.16;101399.94;5021836;28;20025;-49
2021/07/14 08:57:09;;;;;;;14.77;7.55;;;;;;;18.49;77.01;101387.50;5025102;28;20044;-48
2021/07/14 08:59:35;;;;;;;13.07;7.32;;;;;;;18.48;77.30;101391.91;5025621;28;20026;-51
2021/07/14 09:02:01;;;;;;;12.65;7.07;;;;;;;18.49;76.93;101393.66;5021605;28;20033;-53
2021/07/14 09:04:26;;;;;;;12.45;7.28;;;;;;;18.30;76.90;101389.44;5020786;28;20274;-48
2021/07/14 09:06:52;;;;;;;11.82;6.90;;;;;;;18.27;76.96;101389.50;5026839;28;20064;-51
2021/07/14 09:09:18;;;;;;;12.18;6.97;;;;;;;18.30;77.45;101393.88;5016212;28;20029;-51
2021/07/14 09:11:58;;;;;;;13.85;7.78;;;;;;;18.22;77.00;101391.31;5020471;28;20035;-52
2021/07/14 09:14:32;;;;;;;13.05;7.90;;;;;;;18.16;77.92;101397.53;5018915;28;20444;-52
2021/07/14 09:16:58;;;;;;;11.38;7.75;;;;;;;18.25;77.67;101393.91;5023454;28;20499;-50
2021/07/14 09:19:27;;;;;;;12.57;8.23;;;;;;;18.13;77.52;101394.91;5021367;28;20329;-49
2021/07/14 09:21:53;;;;;;;14.45;8.63;;;;;;;18.10;78.37;101396.72;5019889;28;20029;-48
2021/07/14 09:24:31;;;;;;;13.30;8.25;;;;;;;18.13;78.04;101394.03;5004340;28;20148;-51
2021/07/14 09:26:58;;;;;;;14.18;8.55;;;;;;;18.06;78.07;101403.75;5020535;28;20041;-48
2021/07/14 09:29:24;;;;;;;12.38;7.97;;;;;;;18.01;77.62;101397.66;5024251;28;20025;-54
2021/07/14 09:31:50;;;;;;;17.02;8.95;;;;;;;18.12;78.68;101389.63;5007837;28;20437;-50
2021/07/14 09:34:32;;;;;;;12.55;7.57;;;;;;;18.29;77.63;101393.00;5023181;28;20037;-51
2021/07/14 09:37:02;;;;;;;12.48;8.32;;;;;;;18.27;77.87;101384.22;5012313;28;20029;-49
2021/07/14 09:39:39;;;;;;;14.23;8.40;;;;;;;18.30;78.56;101386.81;5022907;28;20063;-49
2021/07/14 09:42:11;;;;;;;16.35;8.70;;;;;;;18.21;78.37;101385.16;5017815;28;20018;-50
2021/07/14 09:44:47;;;;;;;17.08;8.77;;;;;;;18.14;79.10;101388.75;5021014;28;20400;-47
2021/07/14 09:47:14;;;;;;;18.48;8.85;;;;;;;18.02;78.30;101394.13;5011757;28;20113;-47
2021/07/14 09:49:39;;;;;;;16.23;9.05;;;;;;;17.90;78.27;101391.59;5008395;28;20036;-48
2021/07/14 09:52:10;;;;;;;14.82;9.25;;;;;;;17.93;78.19;101391.56;4932864;28;20044;-49
2021/07/14 09:54:35;;;;;;;16.88;9.68;;;;;;;17.94;78.40;101389.78;4925361;28;20714;-47
2021/07/14 09:57:17;;;;;;;13.68;9.18;;;;;;;18.01;78.61;101394.13;4923937;28;20082;-48
2021/07/14 09:59:44;;;;;;;15.68;9.82;;;;;;;18.08;78.85;101387.91;4927569;28;20020;-49
2021/07/14 10:02:14;;;;;;;14.85;9.10;;;;;;;18.28;78.08;101385.97;4913608;28;20173;-51
2021/07/14 10:04:42;;;;;;;13.55;9.30;;;;;;;18.51;77.33;101375.16;4927057;28;20036;-47
2021/07/14 10:07:15;;;;;;;14.95;9.55;;;;;;;18.68;77.11;101382.91;4925802;28;20029;-48
2021/07/14 10:09:42;;;;;;;15.48;9.50;;;;;;;18.78;76.16;101387.22;4914287;28;20028;-47
2021/07/14 10:12:37;;;;;;;17.83;9.85;;;;;;;18.64;76.08;101382.97;4923523;28;20031;-48
2021/07/14 10:15:26;;;;;;;15.60;9.65;;;;;;;18.76;76.12;101391.63;4942036;28;20061;-47
2021/07/14 10:17:52;;;;;;;19.25;9.95;;;;;;;18.99;75.47;101390.44;4925013;28;20028;-50
2021/07/14 10:20:35;;;;;;;13.80;8.43;;;;;;;19.16;75.20;101397.28;4919856;28;20032;-52
2021/07/14 10:23:08;;;;;;;18.15;10.48;;;;;;;18.99;74.83;101398.38;4913475;28;20034;-50
2021/07/14 10:25:36;;;;;;;16.53;9.40;;;;;;;19.10;74.36;101402.63;4929532;28;20478;-48
2021/07/14 10:28:04;;;;;;;15.82;9.00;;;;;;;19.10;74.83;101403.50;4927505;28;20272;-53
2021/07/14 10:30:30;;;;;;;14.48;7.95;;;;;;;19.38;74.48;101410.19;4931758;28;20096;-53
2021/07/14 10:32:56;;;;;;;12.18;7.50;;;;;;;19.60;72.74;101418.69;4921118;28;20039;-52
2021/07/14 10:35:24;;;;;;;17.60;10.50;;;;;;;19.79;72.91;101421.94;4924762;28;20392;-51
2021/07/14 10:37:55;;;;;;;14.65;9.02;;;;;;;19.76;72.94;101424.66;4923895;28;20023;-50
2021/07/14 10:40:22;;;;;;;11.82;7.57;;;;;;;19.88;72.87;101418.28;4931227;28;20483;-50
2021/07/14 10:42:49;;;;;;;11.10;7.40;;;;;;;19.93;72.23;101422.59;4909327;28;20134;-52
2021/07/14 10:45:15;;;;;;;11.70;7.53;;;;;;;19.66;72.78;101423.03;4916838;28;20729;-50
2021/07/14 10:47:40;;;;;;;13.57;8.35;;;;;;;19.50;73.87;101429.44;4906707;28;20027;-52
2021/07/14 10:50:07;;;;;;;12.73;8.40;;;;;;;19.33;74.41;101419.94;4938183;28;20058;-52
2021/07/14 10:52:32;;;;;;;14.38;8.60;;;;;;;19.25;74.55;101423.59;4923463;28;20389;-51
2021/07/14 10:54:59;;;;;;;13.40;8.35;;;;;;;19.28;75.22;101421.75;4920225;28;20498;-48
2021/07/14 10:57:24;;;;;;;13.00;8.52;;;;;;;19.32;74.59;101425.25;4910948;28;20038;-49
2021/07/14 10:59:50;;;;;;;12.40;7.80;;;;;;;19.23;74.97;101414.78;4927777;28;20036;-51
2021/07/14 11:02:16;;;;;;;11.20;7.50;;;;;;;19.12;75.05;101414.94;4910959;28;20066;-50
2021/07/14 11:04:42;;;;;;;9.90;7.00;;;;;;;19.17;75.01;101407.81;4922739;28;20028;-49
2021/07/14 11:07:08;;;;;;;14.15;7.63;;;;;;;19.09;75.34;101403.56;4941367;28;20502;-48
2021/07/14 11:09:44;;;;;;;12.65;8.15;;;;;;;19.13;76.10;101408.78;4926936;28;20023;-48
2021/07/14 11:12:13;;;;;;;15.00;9.00;;;;;;;19.23;75.83;101410.38;4929117;28;20058;-53
2021/07/14 11:14:40;;;;;;;13.90;8.40;;;;;;;19.37;75.43;101412.84;4922821;28;20072;-48
2021/07/14 11:17:08;;;;;;;16.58;9.43;;;;;;;19.43;75.11;101404.81;4919380;28;20039;-51
2021/07/14 11:19:49;;;;;;;15.88;8.75;;;;;;;19.56;74.79;101410.84;4925265;28;20032;-52
2021/07/14 11:22:16;;;;;;;15.50;8.85;;;;;;;19.69;74.31;101405.34;4917556;28;20035;-48